Orlando International Airport
KMCO : now visible

Airfield :











YOU CAN JOIN US ON...

 
LOGIN :

Register | Disclaimer

   EN    FR    IT 

 









Legend :    VFR   Marginal VFR   IFR   Intensive IFR   Very Intensive IFR
Visi :
Ceiling :
>= 8 km
>= 3000ft
5 to 8 km
1000 to 3000 ft
1500m to 5 km
500 to 1000 ft
800 to 1500m
200 to 500 ft
< 800m
< 200 ft
Symbols :   Thunderstorms  Fog  Heavy snow  Heavy precipitations  Wind > 20 kt






- Airport Elevation : 96 ft
- IATA code : MCO


KMCO - Orlando International

CURRENT METAR :
  • 190753Z 15004KT 10SM OVC180 25/23 A3005 RMK AO2 SLP173 T02500233

EXPIRED METARs :
  • 190653Z 15006KT 10SM BKN170 OVC250 26/24 A3005 RMK AO2 SLP176 T02560239
  • 190553Z 14005KT 10SM BKN170 OVC250 26/24 A3008 RMK AO2 SLP183 T02560239 10289 20256 58005

TAF KMCO
Valid from the 19 at 06:00 until the 20 at 12:00 UTC


190520Z 1906/2012 12005KT P6SM BKN150 BKN250
FM191400 14010KT P6SM FEW040 BKN150 BKN250
FM192000 12010KT P6SM VCSH SCT045 BKN150 BKN250
FM200000 15006KT P6SM FEW045 BKN150
KZMA FIR / North America



MET'MAP, your aeronautical weather chart ! - Copyright ORBIFLY December 2007 - Disclaimer

ORBIFLY MET'MAP TEAM :

Programming & Development : Alexandra Zaïnal
Concept & original design : Baudouin d'Aumeries
Assistance for programming : Marc-Olivier Méhu
Technical & hardware support : Manuel Goepfert

Contact : metmap@orbifly.com




SOURCES & CREDITS :

   NOAA       Earth
Advisory